Time;durP1;ratioP1;P1;durP2;ratioP2;P2;SDS_P1;SDS_P2;PMS_P1;PMS_P2;Temp;Humidity;BMP_temperature;BMP_pressure;BME280_temperature;BME280_humidity;BME280_pressure;Samples;Min_cycle;Max_cycle;Signal;HPM_P1;HPM_P2
2022/06/25 00:02:21;;;;;;;12.33;2.40;;;24.40;57.30;;;;;;5059401;28;20209;-79
2022/06/25 00:07:37;;;;;;;6.23;2.37;;;24.40;57.50;;;;;;5070188;28;20289;-79
2022/06/25 00:10:08;;;;;;;8.07;2.37;;;24.40;57.40;;;;;;5055728;28;20620;-79
2022/06/25 00:12:36;;;;;;;6.70;2.13;;;24.40;57.40;;;;;;5058173;28;20221;-78
2022/06/25 00:15:06;;;;;;;6.03;2.20;;;24.40;57.30;;;;;;5078916;28;20222;-79
2022/06/25 00:17:34;;;;;;;4.97;2.60;;;24.30;57.60;;;;;;5063027;28;20619;-78
2022/06/25 00:20:06;;;;;;;5.17;2.43;;;24.30;58.00;;;;;;5060390;28;20214;-78
2022/06/25 00:22:34;;;;;;;6.30;2.00;;;24.30;58.50;;;;;;5061623;28;20233;-78
2022/06/25 00:25:04;;;;;;;8.17;2.50;;;24.30;58.50;;;;;;5038353;28;20305;-79
2022/06/25 00:27:31;;;;;;;10.13;2.73;;;24.20;58.50;;;;;;5066106;28;20197;-79
2022/06/25 00:30:09;;;;;;;6.07;2.80;;;24.20;58.60;;;;;;5060328;28;20202;-80
2022/06/25 00:32:37;;;;;;;11.13;2.60;;;24.10;58.70;;;;;;5046571;28;20201;-79
2022/06/25 00:35:05;;;;;;;9.87;2.40;;;24.10;58.70;;;;;;5038773;28;20202;-79
2022/06/25 00:37:33;;;;;;;5.60;2.83;;;24.00;58.90;;;;;;5038032;28;20203;-80
2022/06/25 00:40:02;;;;;;;11.00;3.47;;;24.00;59.10;;;;;;5063857;28;20226;-79
2022/06/25 00:42:33;;;;;;;7.70;4.00;;;24.00;58.90;;;;;;5075670;28;20206;-80
2022/06/25 00:45:00;;;;;;;7.60;3.10;;;23.90;58.60;;;;;;5044653;28;20243;-79
2022/06/25 00:47:32;;;;;;;7.07;3.13;;;23.90;58.60;;;;;;5060068;28;20200;-80
2022/06/25 00:49:59;;;;;;;9.77;3.90;;;23.80;58.40;;;;;;5079833;28;20213;-79
2022/06/25 00:52:32;;;;;;;9.13;2.73;;;23.80;58.40;;;;;;5047866;28;20203;-79
2022/06/25 00:55:06;;;;;;;7.13;3.00;;;23.80;58.30;;;;;;5058767;28;20232;-79
2022/06/25 00:57:35;;;;;;;10.53;3.00;;;23.70;58.40;;;;;;5050769;28;20277;-79
2022/06/25 01:00:14;;;;;;;7.63;3.03;;;23.70;58.60;;;;;;5070374;28;20229;-79
2022/06/25 01:02:42;;;;;;;7.80;3.00;;;23.70;58.80;;;;;;5072814;28;20267;-78
2022/06/25 01:05:14;;;;;;;4.07;2.70;;;23.60;59.00;;;;;;5055177;28;20309;-79
2022/06/25 01:07:48;;;;;;;7.70;2.80;;;23.60;59.60;;;;;;5056775;28;20284;-79
2022/06/25 01:10:18;;;;;;;9.53;2.30;;;23.60;59.80;;;;;;5061776;28;20198;-79
2022/06/25 01:12:46;;;;;;;5.43;2.67;;;23.50;59.80;;;;;;5041590;28;20248;-79
2022/06/25 01:15:17;;;;;;;13.87;3.30;;;23.50;60.20;;;;;;5052230;28;20202;-79
2022/06/25 01:17:49;;;;;;;6.77;3.23;;;23.50;60.80;;;;;;5057708;28;20257;-79
2022/06/25 01:20:19;;;;;;;7.50;3.17;;;23.40;61.20;;;;;;5057919;28;20646;-79
2022/06/25 01:22:47;;;;;;;7.60;2.77;;;23.40;61.40;;;;;;5061121;28;20272;-79
2022/06/25 01:25:18;;;;;;;5.83;2.77;;;23.40;61.50;;;;;;5060954;28;20247;-79
2022/06/25 01:27:47;;;;;;;7.90;2.83;;;23.30;61.50;;;;;;5041017;28;20207;-79
2022/06/25 01:30:16;;;;;;;10.60;2.63;;;23.30;61.70;;;;;;5066006;28;20257;-78
2022/06/25 01:32:43;;;;;;;8.63;2.73;;;23.30;62.10;;;;;;5054624;28;20222;-79
2022/06/25 01:35:10;;;;;;;8.47;2.83;;;23.30;62.40;;;;;;5056993;28;20206;-78
2022/06/25 01:37:38;;;;;;;6.70;2.80;;;23.20;62.70;;;;;;5064201;28;20226;-79
2022/06/25 01:40:06;;;;;;;12.13;2.70;;;23.20;62.50;;;;;;5058228;28;20278;-79
2022/06/25 01:45:22;;;;;;;5.50;2.27;;;23.10;62.20;;;;;;5056971;28;20254;-79
2022/06/25 01:47:52;;;;;;;6.93;2.37;;;23.10;62.00;;;;;;5048139;28;20262;-79
2022/06/25 01:50:20;;;;;;;6.43;2.40;;;23.20;61.70;;;;;;5055113;28;20244;-80
2022/06/25 01:52:48;;;;;;;9.80;2.90;;;23.20;61.40;;;;;;5061747;28;20202;-78
2022/06/25 01:55:16;;;;;;;5.63;2.20;;;23.20;61.20;;;;;;5038549;28;20210;-79
2022/06/25 01:57:47;;;;;;;7.47;2.20;;;23.20;61.00;;;;;;5046672;28;20198;-79
2022/06/25 02:00:19;;;;;;;12.70;2.77;;;23.20;61.00;;;;;;5048724;28;20214;-79
2022/06/25 02:02:53;;;;;;;9.30;2.33;;;23.30;61.20;;;;;;5055631;28;20210;-78
2022/06/25 02:05:56;;;;;;;8.50;2.37;;;23.40;61.40;;;;;;5037328;28;20256;-78
2022/06/25 02:08:13;;;;;;;5.73;2.40;;;23.40;61.50;;;;;;5055682;28;20241;-78
2022/06/25 02:10:45;;;;;;;8.00;2.07;;;23.50;61.50;;;;;;5053020;28;20207;-80
2022/06/25 02:13:13;;;;;;;7.10;2.33;;;23.60;61.60;;;;;;5046353;28;20635;-79
2022/06/25 02:15:41;;;;;;;6.40;2.10;;;23.60;61.40;;;;;;5044033;28;20294;-78
2022/06/25 02:18:10;;;;;;;5.70;2.10;;;23.70;61.20;;;;;;5026625;28;20213;-78
2022/06/25 02:20:39;;;;;;;6.90;2.07;;;23.70;61.00;;;;;;5044761;28;20225;-79
2022/06/25 02:23:08;;;;;;;6.37;2.20;;;23.80;61.00;;;;;;5033506;28;20651;-79
2022/06/25 02:25:35;;;;;;;2.60;1.57;;;23.80;61.00;;;;;;5057236;28;20230;-78
2022/06/25 02:28:03;;;;;;;4.57;1.90;;;23.90;61.00;;;;;;5041761;28;20202;-78
2022/06/25 02:30:31;;;;;;;3.40;2.07;;;23.90;61.00;;;;;;5052337;28;21177;-78
2022/06/25 02:33:03;;;;;;;7.27;2.10;;;23.90;61.00;;;;;;5046347;28;20198;-79
2022/06/25 02:35:32;;;;;;;10.50;2.40;;;23.90;61.00;;;;;;5040142;28;20301;-78
2022/06/25 02:38:03;;;;;;;9.03;2.23;;;23.80;61.00;;;;;;5039334;28;20717;-79
2022/06/25 02:40:30;;;;;;;4.37;1.93;;;23.80;61.20;;;;;;5048759;28;20206;-78
2022/06/25 02:42:57;;;;;;;9.97;2.10;;;23.70;61.50;;;;;;5049504;28;20206;-78
2022/06/25 02:45:30;;;;;;;5.03;2.13;;;23.70;61.70;;;;;;5053434;28;20260;-78
2022/06/25 02:47:57;;;;;;;6.63;2.40;;;23.60;62.20;;;;;;5055421;28;20233;-79
2022/06/25 02:50:25;;;;;;;5.03;2.00;;;23.60;62.50;;;;;;5049439;28;20233;-78
2022/06/25 02:52:53;;;;;;;5.03;2.23;;;23.50;62.60;;;;;;5030128;28;20210;-78
2022/06/25 03:01:06;;;;;;;9.10;1.93;;;23.50;63.00;;;;;;5044304;28;20249;-79
2022/06/25 03:03:38;;;;;;;8.23;2.13;;;23.40;63.00;;;;;;5047617;28;20210;-79
2022/06/25 03:06:08;;;;;;;8.07;2.17;;;23.40;63.00;;;;;;5049162;28;20212;-79
2022/06/25 03:08:36;;;;;;;9.30;2.53;;;23.40;63.00;;;;;;5028320;28;20214;-79
2022/06/25 03:11:12;;;;;;;6.37;1.80;;;23.40;63.10;;;;;;5035334;28;20203;-79
2022/06/25 03:13:40;;;;;;;8.90;2.50;;;23.30;63.20;;;;;;5047884;28;20210;-79
2022/06/25 03:16:09;;;;;;;8.47;2.53;;;23.30;63.00;;;;;;5030408;28;20658;-78
2022/06/25 03:18:37;;;;;;;5.80;2.13;;;23.30;62.80;;;;;;5041575;28;20283;-79
2022/06/25 03:21:13;;;;;;;8.27;2.40;;;23.30;62.90;;;;;;5057281;28;20289;-79
2022/06/25 03:23:41;;;;;;;8.50;2.83;;;23.30;62.90;;;;;;5056865;28;20227;-79
2022/06/25 03:26:10;;;;;;;7.83;2.10;;;23.20;62.80;;;;;;5037302;28;20269;-79
2022/06/25 03:28:42;;;;;;;6.20;2.37;;;23.20;63.00;;;;;;5064848;28;20609;-79
2022/06/25 03:31:10;;;;;;;6.47;1.97;;;23.20;63.10;;;;;;5041896;28;20203;-79
2022/06/25 03:33:38;;;;;;;4.63;2.07;;;23.10;63.40;;;;;;5056588;28;20650;-80
2022/06/25 03:36:20;;;;;;;6.97;2.70;;;23.10;63.70;;;;;;5047144;28;20211;-78
2022/06/25 03:38:48;;;;;;;4.80;2.27;;;23.00;64.00;;;;;;5051630;28;20529;-78
2022/06/25 03:41:35;;;;;;;7.40;2.60;;;23.00;64.30;;;;;;5050951;28;20233;-79
2022/06/25 03:44:17;;;;;;;9.67;2.40;;;23.00;64.50;;;;;;5052690;28;20305;-78
2022/06/25 03:46:44;;;;;;;7.60;2.00;;;22.90;64.70;;;;;;5056640;28;20206;-79
2022/06/25 03:49:14;;;;;;;8.83;2.33;;;22.90;65.10;;;;;;5078158;28;20221;-79
2022/06/25 03:51:52;;;;;;;5.93;2.30;;;22.90;65.70;;;;;;5065855;28;20193;-79
2022/06/25 03:54:22;;;;;;;6.07;2.33;;;22.90;66.00;;;;;;5046370;28;20203;-79
2022/06/25 03:56:50;;;;;;;7.43;2.60;;;22.90;65.90;;;;;;5047918;28;20549;-79
2022/06/25 03:59:19;;;;;;;5.80;2.30;;;22.90;66.00;;;;;;5044777;28;20327;-79
2022/06/25 04:01:52;;;;;;;6.40;3.10;;;22.90;66.20;;;;;;5079321;28;20214;-79
2022/06/25 04:04:20;;;;;;;9.30;2.50;;;22.90;66.20;;;;;;5054196;28;20214;-78
2022/06/25 04:06:48;;;;;;;9.37;2.50;;;22.80;66.10;;;;;;5077551;28;20190;-79
2022/06/25 04:09:16;;;;;;;7.37;2.73;;;22.80;66.40;;;;;;5051970;28;20262;-79
2022/06/25 04:11:44;;;;;;;10.77;3.17;;;22.80;66.70;;;;;;5067244;28;20206;-79
2022/06/25 04:14:11;;;;;;;7.87;2.27;;;22.80;66.70;;;;;;5067487;28;20244;-79
2022/06/25 04:16:39;;;;;;;8.00;2.93;;;22.80;66.70;;;;;;5061958;28;20205;-78
2022/06/25 04:19:13;;;;;;;7.57;2.30;;;22.80;66.70;;;;;;5064767;28;20288;-79
2022/06/25 04:21:47;;;;;;;6.20;2.40;;;22.80;67.50;;;;;;5065279;28;20197;-79
2022/06/25 04:24:15;;;;;;;7.97;2.57;;;22.80;66.70;;;;;;5075804;28;20217;-78
2022/06/25 04:26:44;;;;;;;6.90;2.70;;;22.90;66.70;;;;;;5065279;28;20315;-79
2022/06/25 04:29:12;;;;;;;4.40;2.03;;;22.90;66.50;;;;;;5039272;28;20519;-79
2022/06/25 04:31:45;;;;;;;11.77;3.07;;;23.00;66.40;;;;;;5053484;28;20554;-79
2022/06/25 04:34:20;;;;;;;10.43;2.53;;;23.10;66.40;;;;;;5079346;28;20209;-78
2022/06/25 04:36:47;;;;;;;13.33;2.67;;;23.20;66.10;;;;;;5069297;28;20222;-78
2022/06/25 04:39:23;;;;;;;8.70;2.47;;;23.30;65.80;;;;;;5058022;28;20209;-78
2022/06/25 04:41:51;;;;;;;8.47;2.57;;;23.40;65.60;;;;;;5061172;28;20203;-78
2022/06/25 04:44:24;;;;;;;12.17;3.00;;;23.60;65.50;;;;;;5064494;28;20233;-78
2022/06/25 04:46:54;;;;;;;14.53;3.00;;;23.70;65.40;;;;;;5047166;28;20294;-79
2022/06/25 04:49:32;;;;;;;6.80;3.10;;;23.70;65.40;;;;;;5046331;28;20204;-78
2022/06/25 04:52:00;;;;;;;6.03;2.50;;;23.90;65.50;;;;;;5054735;28;20215;-79
2022/06/25 04:54:27;;;;;;;10.33;2.50;;;24.00;65.40;;;;;;5043686;28;20218;-79
2022/06/25 04:57:05;;;;;;;10.80;3.23;;;24.00;65.20;;;;;;5045085;28;20202;-79
2022/06/25 04:59:37;;;;;;;9.27;2.80;;;24.10;64.90;;;;;;5058484;28;20264;-79
2022/06/25 05:02:12;;;;;;;9.37;2.73;;;24.10;64.80;;;;;;5042199;28;20252;-80
2022/06/25 05:04:51;;;;;;;6.90;2.83;;;24.30;64.70;;;;;;5026164;28;20226;-79
2022/06/25 05:07:20;;;;;;;5.47;2.97;;;24.40;64.50;;;;;;5039448;28;20202;-79
2022/06/25 05:09:48;;;;;;;8.83;2.70;;;24.50;64.10;;;;;;5038447;28;20191;-79
2022/06/25 05:13:11;;;;;;;9.83;3.90;;;24.60;63.60;;;;;;5032798;28;20763;-79
2022/06/25 05:15:04;;;;;;;6.33;2.40;;;24.70;63.30;;;;;;5050458;28;20297;-79
2022/06/25 05:17:34;;;;;;;8.10;2.80;;;24.90;63.00;;;;;;5043308;28;20233;-79
2022/06/25 05:20:04;;;;;;;8.40;2.60;;;25.00;62.40;;;;;;5037028;28;20206;-79
2022/06/25 05:22:31;;;;;;;11.87;3.03;;;25.20;61.80;;;;;;5030146;28;20208;-80
2022/06/25 05:24:58;;;;;;;8.07;2.60;;;25.40;61.30;;;;;;5035239;28;20223;-79
2022/06/25 05:27:27;;;;;;;7.13;2.43;;;25.60;60.80;;;;;;5052683;28;20213;-79
2022/06/25 05:29:56;;;;;;;11.17;2.70;;;25.70;60.50;;;;;;5048313;28;20647;-80
2022/06/25 05:32:24;;;;;;;7.93;2.80;;;25.80;60.30;;;;;;5041892;28;20322;-79
2022/06/25 05:34:51;;;;;;;8.77;2.73;;;25.90;60.10;;;;;;5041710;28;20210;-79
2022/06/25 05:37:18;;;;;;;7.37;3.10;;;26.00;60.20;;;;;;5040115;28;20203;-80
2022/06/25 05:39:46;;;;;;;7.83;3.13;;;26.00;60.20;;;;;;5035885;28;20268;-80
2022/06/25 05:42:13;;;;;;;10.80;3.47;;;26.10;60.20;;;;;;5042026;28;20238;-79
2022/06/25 05:44:41;;;;;;;7.83;3.30;;;26.20;60.30;;;;;;5052518;28;20252;-79
2022/06/25 05:47:08;;;;;;;7.03;3.23;;;26.30;60.20;;;;;;5032930;28;20200;-79
2022/06/25 05:49:35;;;;;;;7.07;3.37;;;26.40;60.00;;;;;;5040614;28;20514;-79
2022/06/25 05:52:02;;;;;;;12.40;3.93;;;26.50;59.70;;;;;;5041801;28;20288;-79
2022/06/25 05:54:30;;;;;;;8.17;3.40;;;26.70;59.60;;;;;;5042621;28;20636;-79
2022/06/25 05:56:57;;;;;;;10.13;3.40;;;26.80;59.40;;;;;;5035941;28;20222;-80
2022/06/25 05:59:24;;;;;;;9.53;3.37;;;26.90;59.20;;;;;;5021461;28;20222;-80
2022/06/25 06:01:51;;;;;;;5.77;3.07;;;27.00;59.40;;;;;;5044422;28;20539;-80
2022/06/25 06:04:18;;;;;;;14.33;4.10;;;27.20;59.30;;;;;;5029228;28;20293;-79
2022/06/25 06:06:46;;;;;;;8.73;3.30;;;27.30;59.10;;;;;;5053676;28;20198;-80
2022/06/25 06:09:13;;;;;;;9.77;2.70;;;27.40;59.60;;;;;;5058276;28;20225;-79
2022/06/25 06:11:40;;;;;;;9.23;3.03;;;27.50;58.50;;;;;;5026191;28;20201;-80
2022/06/25 06:14:08;;;;;;;5.97;2.40;;;27.60;57.80;;;;;;5039400;28;20202;-80
2022/06/25 06:16:35;;;;;;;8.40;2.93;;;27.80;57.50;;;;;;5053026;28;20202;-80
2022/06/25 06:19:02;;;;;;;10.83;2.83;;;27.90;57.10;;;;;;5025495;28;20214;-79
2022/06/25 06:21:29;;;;;;;5.47;2.30;;;28.00;56.70;;;;;;5053010;28;20220;-80
2022/06/25 06:23:57;;;;;;;5.00;2.37;;;28.10;56.80;;;;;;5033221;28;20677;-80
2022/06/25 06:26:24;;;;;;;6.67;2.33;;;28.20;56.40;;;;;;5037512;28;20284;-80
2022/06/25 06:28:52;;;;;;;7.47;2.77;;;28.40;56.20;;;;;;5033873;28;20694;-80
2022/06/25 06:31:19;;;;;;;10.80;2.90;;;28.50;55.90;;;;;;5052415;28;20692;-80
2022/06/25 06:33:46;;;;;;;7.07;2.50;;;28.60;55.50;;;;;;5038016;28;20233;-80
2022/06/25 06:36:13;;;;;;;8.80;2.10;;;28.80;55.30;;;;;;5041678;28;20257;-80
2022/06/25 06:38:41;;;;;;;5.93;2.40;;;28.90;55.00;;;;;;5056773;28;20206;-80
2022/06/25 06:41:08;;;;;;;4.53;2.20;;;29.00;54.80;;;;;;5034739;28;20207;-80
2022/06/25 06:43:36;;;;;;;6.70;1.87;;;29.20;54.60;;;;;;5018327;28;20281;-81
2022/06/25 06:46:03;;;;;;;11.40;2.83;;;29.30;54.50;;;;;;5061380;28;20245;-81
2022/06/25 06:48:31;;;;;;;5.60;1.87;;;29.40;54.00;;;;;;5071682;28;20760;-80
2022/06/25 06:50:58;;;;;;;5.53;1.90;;;29.50;52.90;;;;;;5069012;28;20206;-80
2022/06/25 06:53:25;;;;;;;5.50;2.13;;;29.60;52.70;;;;;;5031669;28;20220;-80
2022/06/25 06:55:52;;;;;;;5.70;2.20;;;29.60;52.40;;;;;;5069462;28;20255;-81
2022/06/25 06:58:20;;;;;;;7.53;2.20;;;29.70;51.50;;;;;;5075801;28;20201;-80
2022/06/25 07:00:47;;;;;;;6.80;1.83;;;29.70;50.10;;;;;;5065955;28;20224;-80
2022/06/25 07:03:14;;;;;;;7.23;2.27;;;29.60;50.90;;;;;;5059343;28;20201;-80
2022/06/25 07:05:41;;;;;;;6.63;2.10;;;29.50;50.90;;;;;;5044213;28;20218;-80
2022/06/25 07:08:19;;;;;;;4.80;2.13;;;29.50;51.60;;;;;;5059012;28;20206;-81
2022/06/25 07:10:46;;;;;;;6.67;2.10;;;29.50;51.30;;;;;;5058998;28;20208;-81
2022/06/25 07:13:14;;;;;;;8.17;2.00;;;29.50;51.70;;;;;;5066763;28;20511;-79
2022/06/25 07:15:41;;;;;;;3.57;2.03;;;29.50;51.30;;;;;;5054409;28;20680;-80
2022/06/25 07:18:08;;;;;;;8.43;2.10;;;29.40;51.90;;;;;;5076255;28;20260;-78
2022/06/25 07:20:35;;;;;;;7.43;2.03;;;29.50;51.20;;;;;;5083043;28;20645;-80
2022/06/25 07:23:03;;;;;;;7.10;2.03;;;29.50;51.30;;;;;;5059891;28;20198;-80
2022/06/25 07:25:30;;;;;;;4.83;2.03;;;29.70;51.30;;;;;;5056417;28;20225;-79
2022/06/25 07:27:57;;;;;;;6.00;2.43;;;29.70;51.30;;;;;;5055432;28;20205;-79
2022/06/25 07:30:25;;;;;;;5.27;2.17;;;29.90;51.30;;;;;;5063893;28;20543;-79
2022/06/25 07:32:52;;;;;;;6.13;2.70;;;30.00;51.70;;;;;;5059457;28;20204;-80
2022/06/25 07:35:19;;;;;;;4.50;2.10;;;30.20;51.30;;;;;;5079050;28;20195;-81
2022/06/25 07:37:46;;;;;;;7.43;2.57;;;30.30;50.90;;;;;;5047248;28;20199;-82
2022/06/25 07:40:22;;;;;;;8.33;2.53;;;30.40;51.10;;;;;;5065756;28;20324;-80
2022/06/25 07:42:50;;;;;;;7.80;2.67;;;30.50;51.30;;;;;;5065040;28;20202;-81
2022/06/25 07:45:17;;;;;;;7.43;2.63;;;30.70;51.00;;;;;;5076338;28;20305;-80
2022/06/25 07:47:44;;;;;;;8.70;2.30;;;30.80;50.00;;;;;;5079458;28;20206;-80
2022/06/25 07:53:00;;;;;;;7.17;2.17;;;31.00;50.20;;;;;;5077926;28;20438;-80
2022/06/25 07:55:28;;;;;;;4.60;1.50;;;31.10;49.80;;;;;;5063793;28;20237;-80
2022/06/25 07:57:58;;;;;;;7.33;2.00;;;31.30;49.60;;;;;;5062851;28;20300;-82
2022/06/25 08:00:25;;;;;;;11.50;2.50;;;31.50;48.60;;;;;;5066488;28;20292;-82
2022/06/25 08:02:52;;;;;;;6.83;2.27;;;31.50;49.00;;;;;;5082036;28;20259;-81
2022/06/25 08:05:19;;;;;;;9.90;2.77;;;31.60;48.70;;;;;;5061862;28;20210;-79
2022/06/25 08:07:48;;;;;;;12.03;2.50;;;31.60;48.70;;;;;;5060521;28;20199;-79
2022/06/25 08:10:16;;;;;;;5.93;2.30;;;31.60;49.30;;;;;;5065036;28;20217;-80
2022/06/25 08:12:46;;;;;;;9.70;2.53;;;31.80;49.10;;;;;;5063955;28;20479;-81
2022/06/25 08:15:14;;;;;;;6.90;2.77;;;31.90;48.20;;;;;;5065806;28;20209;-82
2022/06/25 08:17:41;;;;;;;6.13;2.17;;;31.80;47.40;;;;;;5076596;28;20202;-79
2022/06/25 08:20:09;;;;;;;4.57;1.97;;;31.80;47.50;;;;;;5076080;28;20202;-81
2022/06/25 08:22:36;;;;;;;6.80;2.83;;;31.70;47.80;;;;;;5039670;28;20520;-80
2022/06/25 08:25:04;;;;;;;8.47;2.27;;;31.70;48.00;;;;;;5046979;28;20212;-80
2022/06/25 08:27:32;;;;;;;4.00;1.77;;;31.60;47.80;;;;;;5074165;28;20221;-81
2022/06/25 08:30:00;;;;;;;6.20;2.50;;;31.70;47.80;;;;;;5060538;28;20227;-82
2022/06/25 08:32:27;;;;;;;2.90;1.77;;;31.90;47.20;;;;;;5055275;28;20209;-81
2022/06/25 08:34:54;;;;;;;5.77;1.90;;;32.00;46.50;;;;;;5073697;28;20205;-81
2022/06/25 08:37:21;;;;;;;6.00;2.33;;;32.00;47.10;;;;;;5073969;28;20198;-81
2022/06/25 08:39:49;;;;;;;7.73;2.40;;;32.00;46.90;;;;;;5046570;28;20213;-81
2022/06/25 08:42:16;;;;;;;11.77;2.13;;;32.10;46.20;;;;;;5082091;28;20288;-82
2022/06/25 08:44:43;;;;;;;5.50;1.93;;;32.20;46.60;;;;;;5074299;28;20230;-80
2022/06/25 08:47:11;;;;;;;9.47;1.87;;;32.30;46.00;;;;;;5061200;28;20250;-80
2022/06/25 08:49:39;;;;;;;4.23;2.23;;;32.30;46.20;;;;;;5062565;28;20251;-80
2022/06/25 08:52:08;;;;;;;6.13;1.87;;;32.40;46.10;;;;;;5072003;28;20210;-82
2022/06/25 08:54:39;;;;;;;4.87;1.97;;;32.50;46.30;;;;;;5067248;28;20271;-82
2022/06/25 08:57:08;;;;;;;3.80;2.30;;;32.70;45.90;;;;;;5050548;28;20592;-81
2022/06/25 08:59:35;;;;;;;6.40;2.57;;;32.70;46.00;;;;;;5058560;28;20206;-81
2022/06/25 09:02:03;;;;;;;3.27;2.07;;;32.60;45.30;;;;;;5069385;28;20634;-81
2022/06/25 09:04:31;;;;;;;6.77;2.60;;;32.50;45.60;;;;;;5071176;28;20220;-80
2022/06/25 09:07:18;;;;;;;5.67;2.70;;;32.50;45.30;;;;;;5052460;28;20237;-80
2022/06/25 09:09:50;;;;;;;4.87;2.20;;;32.60;45.80;;;;;;5064812;28;20198;-81
2022/06/25 09:12:18;;;;;;;3.43;2.10;;;32.70;46.00;;;;;;5065263;28;20210;-80
2022/06/25 09:14:45;;;;;;;4.07;1.80;;;32.80;45.80;;;;;;5042867;28;20224;-82
2022/06/25 09:17:15;;;;;;;5.83;2.10;;;33.00;45.20;;;;;;5063241;28;20210;-80
2022/06/25 09:19:50;;;;;;;7.93;2.40;;;33.30;44.90;;;;;;5059613;28;20633;-80
2022/06/25 09:22:24;;;;;;;8.13;2.57;;;33.50;45.20;;;;;;5079934;28;20641;-81
2022/06/25 09:24:54;;;;;;;10.67;2.50;;;33.70;44.60;;;;;;5056651;28;20216;-79
2022/06/25 09:27:37;;;;;;;5.13;2.00;;;33.60;44.10;;;;;;5060857;28;20221;-81
2022/06/25 09:30:17;;;;;;;4.27;2.03;;;33.60;44.10;;;;;;5056092;28;20209;-81
2022/06/25 09:32:58;;;;;;;25.63;3.10;;;33.50;44.70;;;;;;5075041;28;20269;-81
2022/06/25 09:35:37;;;;;;;5.40;1.90;;;33.50;44.70;;;;;;5060369;28;20199;-80
2022/06/25 09:38:16;;;;;;;4.40;1.90;;;33.50;44.10;;;;;;5065552;28;20214;-81
2022/06/25 09:40:49;;;;;;;6.13;2.17;;;33.50;44.40;;;;;;5077558;28;20249;-81
2022/06/25 09:43:22;;;;;;;4.17;1.90;;;33.50;44.10;;;;;;5060346;28;20198;-81
2022/06/25 09:45:52;;;;;;;7.77;2.40;;;33.40;44.20;;;;;;5073552;28;20780;-81
2022/06/25 09:48:29;;;;;;;5.40;1.93;;;33.50;44.50;;;;;;5075057;28;20202;-81
2022/06/25 09:51:13;;;;;;;4.17;2.03;;;33.60;44.50;;;;;;5057532;28;20201;-80
2022/06/25 09:53:54;;;;;;;5.77;2.63;;;33.90;44.70;;;;;;5080882;28;20228;-81
2022/06/25 09:56:25;;;;;;;5.70;2.57;;;34.10;43.10;;;;;;5052791;28;20202;-82
2022/06/25 09:58:53;;;;;;;7.40;2.10;;;34.30;43.60;;;;;;5046687;28;20301;-81
2022/06/25 10:01:32;;;;;;;6.03;2.00;;;34.30;43.20;;;;;;5071656;28;20199;-80
2022/06/25 10:04:03;;;;;;;7.50;2.53;;;34.40;43.50;;;;;;5075669;28;20249;-81
2022/06/25 10:06:35;;;;;;;5.30;2.40;;;34.50;43.10;;;;;;5058041;28;20221;-80
2022/06/25 10:09:07;;;;;;;3.97;2.30;;;34.70;42.70;;;;;;5052156;28;20202;-82
2022/06/25 10:11:37;;;;;;;6.60;2.37;;;34.90;42.20;;;;;;5074823;28;20614;-82
2022/06/25 10:14:05;;;;;;;5.03;2.20;;;34.90;41.70;;;;;;5068323;28;20194;-80
2022/06/25 10:16:33;;;;;;;5.03;2.07;;;34.90;42.20;;;;;;5056654;28;20660;-81
2022/06/25 10:19:03;;;;;;;3.27;2.00;;;35.00;41.30;;;;;;5060925;28;20201;-81
2022/06/25 10:21:31;;;;;;;4.87;1.73;;;35.00;42.40;;;;;;5058014;28;20599;-81
2022/06/25 10:24:04;;;;;;;4.50;2.30;;;35.10;41.90;;;;;;5060567;28;20659;-81
2022/06/25 10:26:33;;;;;;;4.13;2.37;;;35.10;41.40;;;;;;5074678;28;20268;-81
2022/06/25 10:29:03;;;;;;;5.87;2.20;;;35.20;41.10;;;;;;5069260;28;20231;-80
2022/06/25 10:31:31;;;;;;;4.50;1.93;;;35.20;40.80;;;;;;5062284;28;20288;-81
2022/06/25 10:34:05;;;;;;;4.80;1.87;;;35.20;41.60;;;;;;5061840;28;20220;-80
2022/06/25 10:36:39;;;;;;;4.30;2.13;;;35.30;41.20;;;;;;5061782;28;20224;-81
2022/06/25 10:39:25;;;;;;;6.23;1.77;;;35.40;41.10;;;;;;5062965;28;20209;-81
2022/06/25 10:45:15;;;;;;;4.47;1.97;;;35.50;40.90;;;;;;5072566;28;20716;-81
2022/06/25 10:47:51;;;;;;;3.10;1.67;;;35.50;40.90;;;;;;5042887;28;20232;-81
2022/06/25 10:50:21;;;;;;;3.33;2.10;;;35.50;40.70;;;;;;5058908;28;20198;-81
2022/06/25 10:53:06;;;;;;;7.07;2.00;;;35.50;40.50;;;;;;5075886;28;20201;-82
2022/06/25 10:55:34;;;;;;;2.80;1.50;;;35.50;40.40;;;;;;5062859;28;20233;-81
2022/06/25 10:58:27;;;;;;;3.47;1.67;;;35.40;40.10;;;;;;5075404;28;20578;-81
2022/06/25 11:00:58;;;;;;;8.53;2.40;;;35.30;41.50;;;;;;5056455;28;20226;-81
2022/06/25 11:03:30;;;;;;;8.57;2.20;;;35.40;41.40;;;;;;5077789;28;20243;-81
2022/06/25 11:05:58;;;;;;;6.50;1.70;;;35.50;41.30;;;;;;5076686;28;20218;-81
2022/06/25 11:08:37;;;;;;;5.73;1.77;;;35.70;40.50;;;;;;5057070;28;20234;-80
2022/06/25 11:11:08;;;;;;;3.83;2.30;;;35.80;40.20;;;;;;5065932;28;20221;-79
2022/06/25 11:13:35;;;;;;;3.70;1.80;;;35.80;40.30;;;;;;5048229;28;20202;-81
2022/06/25 11:16:13;;;;;;;5.07;1.93;;;35.80;39.60;;;;;;5077172;28;20238;-81
2022/06/25 11:18:53;;;;;;;4.27;2.13;;;35.90;40.00;;;;;;5061418;28;20217;-80
2022/06/25 11:21:31;;;;;;;6.17;2.47;;;35.90;40.40;;;;;;5059054;28;20241;-80
2022/06/25 11:24:12;;;;;;;4.50;1.87;;;35.90;40.20;;;;;;5077450;28;20213;-81
2022/06/25 11:29:31;;;;;;;4.93;1.80;;;35.80;40.50;;;;;;5079060;28;20198;-80
2022/06/25 11:31:58;;;;;;;5.67;2.03;;;35.70;38.90;;;;;;5057932;28;20197;-81
2022/06/25 11:34:27;;;;;;;3.73;1.90;;;35.40;39.50;;;;;;5042240;28;20805;-79
2022/06/25 11:37:09;;;;;;;7.20;2.23;;;35.20;39.70;;;;;;5053554;28;20230;-81
2022/06/25 11:39:37;;;;;;;7.87;1.87;;;35.30;41.30;;;;;;5075473;28;20285;-81
2022/06/25 11:42:09;;;;;;;5.40;1.97;;;35.50;40.10;;;;;;5063109;28;20205;-80
2022/06/25 11:44:49;;;;;;;7.53;2.07;;;35.50;39.00;;;;;;5063517;28;20311;-80
2022/06/25 11:47:24;;;;;;;4.17;2.07;;;35.60;39.90;;;;;;5072189;28;20201;-80
2022/06/25 11:49:52;;;;;;;4.33;1.97;;;35.70;39.50;;;;;;5063321;28;20205;-79
2022/06/25 11:52:23;;;;;;;6.23;2.10;;;35.80;38.30;;;;;;5065389;28;20190;-79
2022/06/25 11:54:51;;;;;;;4.57;1.73;;;35.90;38.80;;;;;;5055174;28;20202;-80
2022/06/25 11:57:24;;;;;;;4.23;1.70;;;35.90;39.50;;;;;;5062603;28;20292;-81
2022/06/25 11:59:52;;;;;;;2.77;1.40;;;35.80;40.00;;;;;;5064038;28;21031;-80
2022/06/25 12:02:21;;;;;;;4.93;1.77;;;35.90;39.50;;;;;;5068768;28;20217;-80
2022/06/25 12:04:57;;;;;;;4.67;1.80;;;36.10;40.00;;;;;;5065642;28;20232;-82
2022/06/25 12:07:29;;;;;;;2.90;1.90;;;36.20;38.50;;;;;;5064391;28;20236;-81
2022/06/25 12:10:03;;;;;;;6.67;2.23;;;36.30;38.10;;;;;;5049069;28;20540;-81
2022/06/25 12:12:33;;;;;;;4.40;2.10;;;36.50;38.00;;;;;;5068521;28;20281;-81
2022/06/25 12:15:03;;;;;;;5.77;1.80;;;36.60;37.40;;;;;;5077968;28;20191;-81
2022/06/25 12:17:35;;;;;;;8.00;2.40;;;36.50;38.00;;;;;;5064229;28;20210;-81
2022/06/25 12:20:11;;;;;;;5.53;2.07;;;36.10;37.70;;;;;;5048186;28;20225;-80
2022/06/25 12:22:46;;;;;;;2.87;1.73;;;35.70;37.90;;;;;;5067738;28;20217;-81
2022/06/25 12:25:26;;;;;;;3.20;1.60;;;35.50;39.00;;;;;;5077962;28;20206;-81
2022/06/25 12:27:53;;;;;;;4.60;2.07;;;35.40;39.00;;;;;;5077699;28;20282;-81
2022/06/25 12:30:23;;;;;;;3.47;1.80;;;35.30;38.90;;;;;;5063824;28;20198;-81
2022/06/25 12:32:52;;;;;;;5.73;2.20;;;35.30;39.50;;;;;;5062964;28;20252;-80
2022/06/25 12:35:22;;;;;;;4.87;2.57;;;35.10;38.90;;;;;;5076642;28;20691;-82
2022/06/25 12:38:05;;;;;;;4.13;1.93;;;34.80;38.90;;;;;;5050400;28;20267;-81
2022/06/25 12:40:43;;;;;;;5.77;2.07;;;34.50;39.50;;;;;;5048056;28;20205;-80
2022/06/25 12:43:13;;;;;;;6.00;1.90;;;34.30;39.90;;;;;;5078517;28;20561;-80
2022/06/25 12:45:43;;;;;;;5.50;2.00;;;34.40;40.50;;;;;;5075650;28;20230;-81
2022/06/25 12:48:12;;;;;;;4.50;2.00;;;34.60;40.80;;;;;;5059498;28;20253;-80
2022/06/25 12:50:40;;;;;;;5.27;1.90;;;34.80;40.80;;;;;;5056265;28;20609;-80
2022/06/25 12:53:13;;;;;;;3.50;1.80;;;35.00;39.30;;;;;;5059193;28;20524;-80
2022/06/25 12:55:48;;;;;;;9.87;1.83;;;35.10;38.80;;;;;;5057676;28;20267;-81
2022/06/25 12:58:16;;;;;;;5.50;1.80;;;35.10;39.20;;;;;;5042408;28;20664;-80
2022/06/25 13:00:45;;;;;;;4.80;1.47;;;35.20;38.70;;;;;;5059214;28;20304;-80
2022/06/25 13:03:14;;;;;;;3.80;1.80;;;35.20;39.80;;;;;;5068740;28;20198;-80
2022/06/25 13:05:45;;;;;;;5.27;1.87;;;35.30;38.30;;;;;;5045737;28;20261;-80
2022/06/25 13:08:13;;;;;;;4.20;1.80;;;35.30;39.40;;;;;;5054776;28;20222;-80
2022/06/25 13:10:42;;;;;;;4.77;2.13;;;35.30;39.10;;;;;;5056849;28;20206;-80
2022/06/25 13:13:09;;;;;;;4.27;2.00;;;35.40;39.10;;;;;;5055278;28;20289;-80
2022/06/25 13:15:38;;;;;;;3.00;1.87;;;35.30;38.40;;;;;;5063294;28;20195;-80
2022/06/25 13:18:05;;;;;;;5.47;2.40;;;35.40;38.80;;;;;;5049280;28;20206;-80
2022/06/25 13:20:33;;;;;;;5.80;2.00;;;35.40;38.10;;;;;;5057588;28;20635;-80
2022/06/25 13:23:00;;;;;;;7.27;2.10;;;35.30;38.50;;;;;;5041968;28;20269;-80